Time;durP1;ratioP1;P1;durP2;ratioP2;P2;SDS_P1;SDS_P2;PMS_P1;PMS_P2;Temp;Humidity;BMP_temperature;BMP_pressure;BME280_temperature;BME280_humidity;BME280_pressure;Samples;Min_cycle;Max_cycle;Signal;HPM_P1;HPM_P2
2021/11/08 00:02:09;;;;;;;42.72;16.50;;;;;;;8.73;100.00;101624.72;5017645;28;20198;-86
2021/11/08 00:04:35;;;;;;;46.63;17.58;;;;;;;8.74;100.00;101633.63;5017489;28;20037;-87
2021/11/08 00:07:27;;;;;;;40.97;14.20;;;;;;;8.73;100.00;101619.38;5022921;28;20033;-87
2021/11/08 00:09:53;;;;;;;41.28;14.55;;;;;;;8.74;100.00;101618.38;5049823;28;20043;-87
2021/11/08 00:12:21;;;;;;;50.38;15.70;;;;;;;8.75;100.00;101612.00;5033539;28;20099;-88
2021/11/08 00:14:48;;;;;;;32.60;14.32;;;;;;;8.76;100.00;101619.06;5017694;28;20028;-85
2021/11/08 00:17:30;;;;;;;40.90;15.27;;;;;;;8.73;100.00;101613.13;5017399;28;20045;-86
2021/11/08 00:20:00;;;;;;;39.97;13.27;;;;;;;8.77;100.00;101614.56;5035969;28;20044;-89
2021/11/08 00:22:26;;;;;;;37.28;13.85;;;;;;;8.77;100.00;101611.88;5017869;28;20478;-87
2021/11/08 00:24:52;;;;;;;37.40;14.00;;;;;;;8.71;100.00;101597.22;5017410;28;20064;-86
2021/11/08 00:27:19;;;;;;;32.10;12.48;;;;;;;8.81;100.00;101610.59;5017397;28;20494;-87
2021/11/08 00:29:45;;;;;;;35.20;13.15;;;;;;;8.82;100.00;101606.09;5020243;28;20491;-87
2021/11/08 00:32:11;;;;;;;32.22;12.65;;;;;;;8.77;100.00;101599.31;5020972;28;20123;-87
2021/11/08 00:34:37;;;;;;;33.90;11.45;;;;;;;8.74;100.00;101591.56;5037148;28;20067;-89
2021/11/08 00:37:03;;;;;;;31.85;10.93;;;;;;;8.80;100.00;101592.81;5020881;28;20033;-86
2021/11/08 00:39:29;;;;;;;23.33;11.13;;;;;;;8.79;100.00;101596.50;5021143;28;20553;-88
2021/11/08 00:41:55;;;;;;;21.88;11.73;;;;;;;8.79;100.00;101591.13;5070974;28;20036;-88
2021/11/08 00:44:22;;;;;;;24.60;10.35;;;;;;;8.76;100.00;101573.50;5037626;28;20033;-87
2021/11/08 00:46:48;;;;;;;32.22;11.90;;;;;;;8.74;100.00;101570.09;5021156;28;20092;-87
2021/11/08 00:49:15;;;;;;;30.67;11.65;;;;;;;8.82;100.00;101576.59;5021282;28;20048;-87
2021/11/08 00:51:44;;;;;;;29.90;11.98;;;;;;;8.77;100.00;101559.09;5037334;28;20104;-89
2021/11/08 00:54:12;;;;;;;29.27;11.85;;;;;;;8.80;100.00;101564.16;5054044;28;20036;-90
2021/11/08 00:56:39;;;;;;;27.25;10.95;;;;;;;8.86;100.00;101569.94;5021237;28;20037;-89
2021/11/08 00:59:05;;;;;;;33.55;10.77;;;;;;;8.87;100.00;101556.38;5037549;28;20036;-88
2021/11/08 01:01:31;;;;;;;28.88;11.77;;;;;;;8.80;100.00;101548.06;5037226;28;20040;-87
2021/11/08 01:03:57;;;;;;;27.15;11.13;;;;;;;8.89;100.00;101561.59;5036901;28;20028;-88
2021/11/08 01:06:23;;;;;;;28.42;10.82;;;;;;;8.93;100.00;101557.63;5020625;28;20029;-87
2021/11/08 01:08:50;;;;;;;25.80;10.88;;;;;;;8.89;100.00;101548.19;5020631;28;20025;-86
2021/11/08 01:11:15;;;;;;;28.98;10.82;;;;;;;8.94;100.00;101560.16;5036965;28;20029;-87
2021/11/08 01:13:43;;;;;;;27.33;10.90;;;;;;;8.90;100.00;101541.84;5020636;28;20037;-87
2021/11/08 01:16:10;;;;;;;25.83;10.65;;;;;;;8.99;100.00;101555.22;5020050;28;20040;-86
2021/11/08 01:18:36;;;;;;;23.50;8.90;;;;;;;9.04;100.00;101554.78;5020447;28;20036;-86
2021/11/08 01:21:02;;;;;;;20.98;9.20;;;;;;;9.09;100.00;101546.28;5020141;28;20044;-87
2021/11/08 01:23:28;;;;;;;18.08;7.15;;;;;;;9.22;100.00;101546.81;5020515;28;20403;-88
2021/11/08 01:26:02;;;;;;;13.57;6.45;;;;;;;9.32;100.00;101536.03;5020372;28;20527;-88
2021/11/08 01:28:34;;;;;;;15.93;6.10;;;;;;;9.45;100.00;101539.22;5020972;28;20033;-87
2021/11/08 01:31:02;;;;;;;10.52;3.95;;;;;;;9.60;100.00;101526.97;5020787;28;20082;-89
2021/11/08 01:33:29;;;;;;;8.00;3.65;;;;;;;9.73;100.00;101528.44;5053182;28;20029;-87
2021/11/08 01:38:54;;;;;;;6.93;2.78;;;;;;;9.89;100.00;101520.56;5037943;28;20040;-87
2021/11/08 01:41:19;;;;;;;10.63;4.70;;;;;;;9.85;100.00;101524.56;5038570;28;20052;-87
2021/11/08 01:43:46;;;;;;;12.43;5.60;;;;;;;9.78;100.00;101510.03;5019855;28;20390;-88
2021/11/08 01:46:12;;;;;;;16.30;6.10;;;;;;;9.62;100.00;101500.81;5020064;28;20044;-87
2021/11/08 01:48:39;;;;;;;15.27;6.40;;;;;;;9.60;100.00;101497.44;5020051;28;20028;-90
2021/11/08 01:51:05;;;;;;;16.90;6.53;;;;;;;9.60;100.00;101507.31;5019598;28;20481;-88
2021/11/08 01:53:31;;;;;;;14.85;5.70;;;;;;;9.62;100.00;101516.91;5019695;28;20112;-88
2021/11/08 01:55:57;;;;;;;21.05;6.70;;;;;;;9.57;100.00;101492.38;5036348;28;20037;-87
2021/11/08 01:58:26;;;;;;;16.95;6.50;;;;;;;9.61;100.00;101499.13;5019258;28;20037;-86
2021/11/08 02:00:52;;;;;;;14.15;5.50;;;;;;;9.62;100.00;101498.13;5052857;28;20028;-87
2021/11/08 02:03:18;;;;;;;11.27;4.72;;;;;;;9.61;100.00;101488.41;5019482;28;20047;-90
2021/11/08 02:05:45;;;;;;;10.43;4.22;;;;;;;9.76;100.00;101490.53;5036113;28;20372;-87
2021/11/08 02:08:11;;;;;;;6.47;4.00;;;;;;;9.82;100.00;101481.91;5019701;28;20483;-87
2021/11/08 02:10:38;;;;;;;9.63;3.78;;;;;;;9.79;100.00;101460.69;5019369;28;20071;-87
2021/11/08 02:13:05;;;;;;;6.97;3.60;;;;;;;9.98;100.00;101470.47;5035753;28;20052;-88
2021/11/08 02:15:31;;;;;;;8.48;3.03;;;;;;;10.09;100.00;101478.28;5019075;28;20372;-91
2021/11/08 02:17:57;;;;;;;8.77;3.70;;;;;;;10.16;100.00;101467.72;5035691;28;20029;-87
2021/11/08 02:20:28;;;;;;;5.00;2.53;;;;;;;10.23;100.00;101466.94;5035763;28;20033;-86
2021/11/08 02:22:59;;;;;;;9.88;3.47;;;;;;;10.20;100.00;101451.16;5035799;28;20040;-88
2021/11/08 02:25:27;;;;;;;7.07;2.70;;;;;;;10.24;100.00;101444.47;5019570;28;20056;-88
2021/11/08 02:27:53;;;;;;;7.45;2.67;;;;;;;10.33;100.00;101445.41;5019073;28;20025;-88
2021/11/08 02:30:20;;;;;;;3.85;2.08;;;;;;;10.29;100.00;101435.94;5052153;28;20111;-88
2021/11/08 02:32:47;;;;;;;4.20;2.22;;;;;;;10.39;100.00;101444.75;5018847;28;20033;-86
2021/11/08 02:35:14;;;;;;;3.58;2.00;;;;;;;10.41;100.00;101439.22;5035778;28;20387;-88
2021/11/08 02:37:40;;;;;;;7.03;2.30;;;;;;;10.42;100.00;101432.84;5035246;28;20041;-87
2021/11/08 02:40:08;;;;;;;3.17;1.52;;;;;;;10.42;100.00;101420.25;5018767;28;20086;-87
2021/11/08 02:42:34;;;;;;;3.30;1.83;;;;;;;10.43;100.00;101418.41;5035044;28;20041;-86
2021/11/08 02:45:03;;;;;;;4.18;1.85;;;;;;;10.38;100.00;101410.81;5018738;28;20116;-88
2021/11/08 02:47:29;;;;;;;3.53;1.38;;;;;;;10.40;100.00;101414.19;5018860;28;20033;-87
2021/11/08 02:49:57;;;;;;;4.00;1.83;;;;;;;10.47;100.00;101423.28;5018703;28;20040;-87
2021/11/08 02:52:25;;;;;;;4.10;1.60;;;;;;;10.47;100.00;101417.91;5034143;28;20027;-88
2021/11/08 02:54:52;;;;;;;2.95;1.45;;;;;;;10.48;100.00;101410.72;5035560;28;20394;-87
2021/11/08 02:57:21;;;;;;;3.65;1.67;;;;;;;10.44;100.00;101399.41;5051303;28;20040;-88
2021/11/08 02:59:47;;;;;;;6.47;1.48;;;;;;;10.51;100.00;101403.16;5035356;28;20033;-87
2021/11/08 03:02:17;;;;;;;4.20;1.75;;;;;;;10.53;100.00;101403.00;5018114;28;20384;-87
2021/11/08 03:04:47;;;;;;;3.17;1.52;;;;;;;10.56;100.00;101400.00;5018800;28;20064;-88
2021/11/08 03:07:13;;;;;;;5.30;2.05;;;;;;;10.51;100.00;101383.50;5018898;28;20041;-86
2021/11/08 03:09:43;;;;;;;3.55;1.65;;;;;;;10.53;100.00;101376.97;5051222;28;20028;-90
2021/11/08 03:12:11;;;;;;;3.75;1.58;;;;;;;10.62;100.00;101385.06;5018234;28;20028;-87
2021/11/08 03:14:43;;;;;;;3.47;1.40;;;;;;;10.61;100.00;101384.25;5034923;28;20061;-87
2021/11/08 03:17:15;;;;;;;4.22;1.52;;;;;;;10.69;100.00;101391.47;5052087;28;20075;-89
2021/11/08 03:19:43;;;;;;;2.28;1.42;;;;;;;10.64;100.00;101385.72;5034983;28;20040;-87
2021/11/08 03:22:14;;;;;;;2.22;1.10;;;;;;;10.62;100.00;101375.16;5018317;28;20553;-88
2021/11/08 03:25:01;;;;;;;2.95;1.38;;;;;;;10.67;100.00;101380.91;5018487;28;20479;-89
2021/11/08 03:27:52;;;;;;;4.88;1.60;;;;;;;10.70;100.00;101380.56;5020988;28;20057;-86
2021/11/08 03:30:24;;;;;;;4.15;1.35;;;;;;;10.73;100.00;101379.41;5036908;28;20060;-89
2021/11/08 03:32:51;;;;;;;3.33;2.00;;;;;;;10.76;100.00;101387.16;5018239;28;20483;-87
2021/11/08 03:35:21;;;;;;;5.38;1.52;;;;;;;10.79;100.00;101384.13;5017971;28;20037;-88
2021/11/08 03:37:48;;;;;;;2.35;1.35;;;;;;;10.79;100.00;101373.38;5018516;28;20062;-88
2021/11/08 03:40:18;;;;;;;5.38;1.40;;;;;;;10.81;100.00;101379.44;5033918;28;20043;-87
2021/11/08 03:42:45;;;;;;;4.20;1.50;;;;;;;10.81;100.00;101379.44;5017907;28;20087;-88
2021/11/08 03:45:11;;;;;;;4.13;1.70;;;;;;;10.82;100.00;101377.56;5017900;28;20043;-88
2021/11/08 03:47:37;;;;;;;5.32;1.60;;;;;;;10.77;100.00;101372.72;5017567;28;20035;-88
2021/11/08 03:50:05;;;;;;;1.65;1.17;;;;;;;10.73;100.00;101363.25;5017718;28;20037;-88
2021/11/08 03:52:32;;;;;;;3.47;1.80;;;;;;;10.74;100.00;101363.13;5017327;28;20036;-88
2021/11/08 03:54:57;;;;;;;3.28;1.48;;;;;;;10.65;100.00;101350.63;5017555;28;20037;-86
2021/11/08 03:57:23;;;;;;;2.97;1.67;;;;;;;10.64;100.00;101348.06;5017731;28;20037;-87
2021/11/08 03:59:49;;;;;;;2.83;2.05;;;;;;;10.65;100.00;101352.47;5017612;28;20043;-87
2021/11/08 04:02:14;;;;;;;3.42;1.50;;;;;;;10.59;100.00;101337.00;5017170;28;20166;-86
2021/11/08 04:04:40;;;;;;;5.85;1.65;;;;;;;10.62;100.00;101347.41;5017331;28;20033;-86
2021/11/08 04:07:06;;;;;;;2.47;1.38;;;;;;;10.60;100.00;101344.03;5017707;28;20370;-87
2021/11/08 04:09:32;;;;;;;4.47;1.73;;;;;;;10.62;100.00;101344.72;5033932;28;20029;-86
2021/11/08 04:11:59;;;;;;;5.25;2.30;;;;;;;10.63;100.00;101346.41;5017312;28;20029;-87
2021/11/08 04:14:26;;;;;;;5.93;1.80;;;;;;;10.55;100.00;101342.66;5017693;28;20041;-88
2021/11/08 04:16:52;;;;;;;6.32;2.25;;;;;;;10.56;100.00;101344.38;5017418;28;20037;-87
2021/11/08 04:19:19;;;;;;;5.25;2.15;;;;;;;10.57;100.00;101343.34;5017203;28;20102;-87
2021/11/08 04:21:45;;;;;;;3.65;1.75;;;;;;;10.59;100.00;101342.38;5066964;28;20033;-87
2021/11/08 04:24:11;;;;;;;4.07;1.50;;;;;;;10.59;100.00;101337.84;5017227;28;20056;-89
2021/11/08 04:26:38;;;;;;;3.28;1.50;;;;;;;10.54;100.00;101332.09;5033299;28;20093;-87
2021/11/08 04:29:05;;;;;;;5.80;1.90;;;;;;;10.58;100.00;101338.81;5017417;28;20039;-88
2021/11/08 04:31:37;;;;;;;4.45;1.85;;;;;;;10.55;100.00;101334.59;5017102;28;20025;-89
2021/11/08 04:34:16;;;;;;;4.35;2.05;;;;;;;10.54;100.00;101327.56;5017616;28;20033;-86
2021/11/08 04:52:43;;;;;;;4.07;1.95;;;;;;;10.65;100.00;101323.72;5034541;28;20123;-88
2021/11/08 05:30:36;;;;;;;2.50;1.30;;;;;;;10.86;100.00;101290.19;5038620;28;20516;-88
2021/11/08 05:33:02;;;;;;;2.65;1.48;;;;;;;10.82;100.00;101280.72;5020003;28;20037;-88
2021/11/08 05:35:29;;;;;;;1.95;1.20;;;;;;;10.92;100.00;101293.03;5020037;28;20052;-91
2021/11/08 05:37:56;;;;;;;4.60;1.35;;;;;;;10.85;100.00;101275.88;5020085;28;20190;-87
2021/11/08 05:40:31;;;;;;;3.95;1.60;;;;;;;10.87;100.00;101271.16;5020188;28;20029;-88
2021/11/08 05:42:57;;;;;;;2.38;1.30;;;;;;;10.94;100.00;101274.03;5020742;28;20494;-87
2021/11/08 05:45:30;;;;;;;2.95;1.50;;;;;;;10.97;100.00;101279.09;5019978;28;20053;-88
2021/11/08 05:47:56;;;;;;;2.13;1.20;;;;;;;11.07;100.00;101278.94;5020802;28;20064;-86
2021/11/08 05:50:21;;;;;;;2.13;1.20;;;;;;;11.08;100.00;101283.31;5019940;28;20114;-87
2021/11/08 05:52:52;;;;;;;3.88;1.83;;;;;;;11.00;100.00;101259.91;5019496;28;20074;-88
2021/11/08 05:55:19;;;;;;;2.60;1.25;;;;;;;11.07;100.00;101271.72;5019835;28;20102;-89
2021/11/08 05:57:51;;;;;;;4.60;1.70;;;;;;;11.10;100.00;101276.75;5019271;28;20127;-87
2021/11/08 06:49:34;;;;;;;4.85;2.10;;;;;;;11.44;100.00;101252.38;5037543;28;20037;-87
2021/11/08 06:52:01;;;;;;;4.97;1.77;;;;;;;11.44;100.00;101252.38;5018841;28;20051;-87
2021/11/08 06:54:28;;;;;;;6.10;2.08;;;;;;;11.58;100.00;101261.59;5018674;28;20056;-87
2021/11/08 06:57:00;;;;;;;4.47;2.40;;;;;;;11.63;100.00;101266.50;5018825;28;20031;-87
2021/11/08 06:59:27;;;;;;;5.22;2.28;;;;;;;11.66;100.00;101266.16;5019095;28;20123;-87
2021/11/08 07:01:56;;;;;;;6.18;3.60;;;;;;;11.63;100.00;101253.03;5034879;28;20082;-87
2021/11/08 07:04:23;;;;;;;7.25;1.85;;;;;;;11.66;100.00;101252.66;5017944;28;20044;-88
2021/11/08 07:06:49;;;;;;;3.63;1.30;;;;;;;11.65;100.00;101242.91;5018328;28;20182;-87
2021/11/08 07:09:15;;;;;;;11.10;1.58;;;;;;;11.78;100.00;101262.09;5018135;28;20132;-87
2021/11/08 07:11:44;;;;;;;3.58;1.42;;;;;;;11.74;100.00;101249.97;5018348;28;20025;-87
2021/11/08 07:14:10;;;;;;;5.53;1.58;;;;;;;11.80;100.00;101257.38;5034927;28;20052;-87
2021/11/08 07:16:38;;;;;;;10.32;1.92;;;;;;;11.82;100.00;101260.72;5018105;28;20036;-87
2021/11/08 07:19:07;;;;;;;6.97;1.80;;;;;;;11.85;100.00;101260.41;5017876;28;20060;-86
2021/11/08 07:21:33;;;;;;;6.70;1.90;;;;;;;11.85;100.00;101248.75;5018253;28;20056;-88
2021/11/08 07:23:59;;;;;;;7.78;1.65;;;;;;;11.93;100.00;101253.31;5018017;28;20147;-87
2021/11/08 07:26:26;;;;;;;12.07;2.58;;;;;;;12.01;100.00;101261.38;5018272;28;20053;-88
2021/11/08 07:28:52;;;;;;;7.45;2.20;;;;;;;12.02;100.00;101266.59;5018012;28;20479;-87
2021/11/08 07:31:18;;;;;;;10.82;2.60;;;;;;;11.93;100.00;101258.72;5018049;28;20654;-87
2021/11/08 07:33:44;;;;;;;8.80;3.00;;;;;;;11.97;100.00;101260.91;5017405;28;20119;-87
2021/11/08 07:36:10;;;;;;;9.18;2.25;;;;;;;11.94;100.00;101263.94;5034217;28;20025;-87
2021/11/08 07:38:36;;;;;;;9.57;2.15;;;;;;;12.01;100.00;101269.47;5017088;28;20029;-88
2021/11/08 07:41:03;;;;;;;11.27;3.03;;;;;;;11.99;100.00;101271.50;5018659;28;20459;-87
2021/11/08 07:43:29;;;;;;;9.57;2.10;;;;;;;11.99;100.00;101268.81;5034184;28;20041;-88
2021/11/08 07:45:55;;;;;;;7.38;2.10;;;;;;;12.01;100.00;101280.25;5017566;28;20041;-86
2021/11/08 07:48:23;;;;;;;9.73;2.70;;;;;;;12.06;100.00;101289.50;5017232;28;20442;-87
2021/11/08 07:50:49;;;;;;;14.35;3.53;;;;;;;12.06;100.00;101294.06;5017906;28;20029;-87
2021/11/08 07:53:16;;;;;;;12.02;2.40;;;;;;;12.08;100.00;101300.13;5017482;28;20106;-87
2021/11/08 07:55:42;;;;;;;17.15;3.92;;;;;;;12.10;100.00;101308.88;5017694;28;20562;-87
2021/11/08 07:58:08;;;;;;;13.05;4.25;;;;;;;12.09;100.00;101304.47;5017670;28;20112;-86
2021/11/08 08:00:35;;;;;;;15.30;4.47;;;;;;;12.05;100.00;101292.38;5017609;28;20033;-87
2021/11/08 08:03:03;;;;;;;10.80;3.15;;;;;;;12.08;100.00;101302.81;5017727;28;20553;-86
2021/11/08 08:05:29;;;;;;;9.50;2.00;;;;;;;12.12;100.00;101304.16;5033802;28;20502;-87
2021/11/08 08:07:55;;;;;;;12.40;3.15;;;;;;;12.14;100.00;101312.06;5017451;28;20657;-86
2021/11/08 08:10:20;;;;;;;4.60;2.00;;;;;;;12.13;100.00;101310.38;5033484;28;20029;-86
2021/11/08 08:12:46;;;;;;;7.93;2.28;;;;;;;12.04;100.00;101296.94;5017314;28;20376;-88
2021/11/08 08:15:13;;;;;;;12.98;2.80;;;;;;;12.10;100.00;101319.66;5017008;28;20407;-86
2021/11/08 08:17:39;;;;;;;5.85;1.98;;;;;;;12.13;100.00;101326.56;5033850;28;20076;-87
2021/11/08 08:20:08;;;;;;;9.05;2.25;;;;;;;12.08;100.00;101317.13;5017249;28;20057;-86
2021/11/08 08:22:34;;;;;;;20.52;2.58;;;;;;;12.10;100.00;101325.88;5017374;28;20123;-86
2021/11/08 08:24:59;;;;;;;25.00;3.75;;;;;;;12.16;100.00;101337.84;5017208;28;20028;-89
2021/11/08 08:27:25;;;;;;;12.13;2.22;;;;;;;12.14;100.00;101333.63;5017141;28;20140;-87
2021/11/08 08:29:51;;;;;;;16.73;3.00;;;;;;;12.20;100.00;101336.50;5016775;28;20116;-87
2021/11/08 08:32:20;;;;;;;15.93;2.45;;;;;;;12.20;100.00;101330.22;5017071;28;20087;-87
2021/11/08 08:34:47;;;;;;;12.30;2.85;;;;;;;12.29;100.00;101334.59;5016985;28;20025;-88
2021/11/08 08:37:13;;;;;;;12.90;2.65;;;;;;;12.35;100.00;101341.16;5049970;28;20028;-88
2021/11/08 08:39:38;;;;;;;17.20;3.13;;;;;;;12.37;100.00;101339.97;5033552;28;20090;-87
2021/11/08 08:42:04;;;;;;;6.07;2.22;;;;;;;12.37;100.00;101328.34;5033503;28;20036;-87
2021/11/08 08:44:31;;;;;;;11.50;2.70;;;;;;;12.45;100.00;101344.50;5017080;28;20060;-87
2021/11/08 08:46:57;;;;;;;13.18;3.22;;;;;;;12.42;100.00;101334.91;5017050;28;20041;-88
2021/11/08 08:49:23;;;;;;;18.23;3.42;;;;;;;12.53;100.00;101353.41;5017785;28;20506;-89
2021/11/08 08:51:49;;;;;;;16.20;2.92;;;;;;;12.54;100.00;101357.78;5037190;28;20486;-89
2021/11/08 08:54:15;;;;;;;18.90;2.60;;;;;;;12.57;100.00;101351.22;5021008;28;20037;-88
2021/11/08 08:56:41;;;;;;;11.45;2.83;;;;;;;12.56;100.00;101354.91;5020695;28;20036;-87
2021/11/08 08:59:07;;;;;;;19.05;3.03;;;;;;;12.60;100.00;101352.72;5020683;28;20035;-87
2021/11/08 09:01:33;;;;;;;13.07;2.85;;;;;;;12.65;100.00;101356.56;5020687;28;20024;-88
2021/11/08 09:03:59;;;;;;;13.15;2.35;;;;;;;12.63;100.00;101349.66;5020853;28;20060;-87
2021/11/08 09:06:26;;;;;;;9.90;2.10;;;;;;;12.71;100.00;101360.41;5020579;28;20061;-88
2021/11/08 09:08:53;;;;;;;9.90;2.35;;;;;;;12.61;100.00;101339.03;5020563;28;20122;-87
2021/11/08 09:11:19;;;;;;;9.75;2.63;;;;;;;12.70;100.00;101354.19;5020316;28;20395;-88
2021/11/08 09:13:46;;;;;;;16.42;2.67;;;;;;;12.63;100.00;101330.78;5020482;28;20043;-87
2021/11/08 09:16:12;;;;;;;11.98;3.03;;;;;;;12.69;100.00;101348.97;5036898;28;20032;-88
2021/11/08 09:18:43;;;;;;;11.85;2.58;;;;;;;12.75;100.00;101349.09;5020366;28;20094;-88
2021/11/08 09:21:11;;;;;;;7.90;2.65;;;;;;;12.69;100.00;101341.69;5020203;28;20021;-87
2021/11/08 09:23:37;;;;;;;15.18;2.70;;;;;;;12.75;100.00;101335.63;5020523;28;20063;-87
2021/11/08 09:26:03;;;;;;;13.05;2.38;;;;;;;12.88;100.00;101342.28;5036249;28;20504;-89
2021/11/08 09:28:30;;;;;;;13.65;3.38;;;;;;;12.89;100.00;101344.81;5020560;28;20037;-87
2021/11/08 09:30:57;;;;;;;9.80;2.65;;;;;;;12.93;100.00;101340.72;5020161;28;20037;-88
2021/11/08 09:33:23;;;;;;;17.48;2.80;;;;;;;12.86;100.00;101320.03;5020329;28;20044;-88
2021/11/08 09:35:56;;;;;;;16.77;3.17;;;;;;;12.94;100.00;101328.94;5053027;28;20029;-87
2021/11/08 09:38:23;;;;;;;12.43;3.75;;;;;;;13.09;100.00;101320.91;5037349;28;20040;-86
2021/11/08 09:40:49;;;;;;;35.35;10.20;;;;;;;13.20;100.00;101315.09;5020083;28;20479;-87
2021/11/08 09:43:19;;;;;;;19.58;4.30;;;;;;;13.34;100.00;101320.78;5036389;28;20087;-88
2021/11/08 09:45:46;;;;;;;25.33;6.72;;;;;;;13.47;100.00;101322.84;5020305;28;20055;-87
2021/11/08 09:48:12;;;;;;;29.60;6.25;;;;;;;13.41;100.00;101314.44;5036248;28;20040;-88
2021/11/08 09:50:41;;;;;;;20.67;4.32;;;;;;;13.41;100.00;101302.81;5019981;28;20467;-88
2021/11/08 09:53:07;;;;;;;21.60;7.80;;;;;;;13.45;100.00;101317.66;5019256;28;20098;-89
2021/11/08 09:55:34;;;;;;;27.85;8.38;;;;;;;13.45;100.00;101297.91;5019746;28;20434;-91
2021/11/08 09:58:03;;;;;;;16.83;3.67;;;;;;;13.56;100.00;101321.78;5019658;28;20033;-88
2021/11/08 10:00:35;;;;;;;19.45;3.17;;;;;;;13.60;100.00;101321.25;5019451;28;20082;-88
2021/11/08 10:03:04;;;;;;;12.85;2.50;;;;;;;13.53;100.00;101305.94;5052252;28;20327;-88
2021/11/08 10:05:33;;;;;;;18.00;5.00;;;;;;;13.67;100.00;101317.81;5019421;28;20044;-88
2021/11/08 10:07:59;;;;;;;19.95;3.80;;;;;;;13.64;100.00;101316.31;5019283;28;20041;-88
2021/11/08 10:10:27;;;;;;;18.85;6.47;;;;;;;13.73;100.00;101325.16;5019522;28;20485;-88
2021/11/08 10:13:08;;;;;;;29.85;6.97;;;;;;;13.66;100.00;101300.75;5019193;28;20067;-88
2021/11/08 10:15:35;;;;;;;12.43;3.35;;;;;;;13.72;100.00;101316.22;5019560;28;20475;-87
2021/11/08 10:18:03;;;;;;;15.77;4.95;;;;;;;13.72;100.00;101329.75;5019304;28;20029;-88
2021/11/08 10:20:31;;;;;;;16.92;4.32;;;;;;;13.62;100.00;101323.75;5019387;28;20037;-87
2021/11/08 10:23:01;;;;;;;14.85;5.25;;;;;;;13.55;100.00;101312.84;5019067;28;20466;-87
2021/11/08 10:25:29;;;;;;;13.80;3.35;;;;;;;13.56;100.00;101319.91;5019301;28;20063;-88
2021/11/08 10:27:55;;;;;;;9.75;2.70;;;;;;;13.78;100.00;101334.41;5019054;28;20033;-88
2021/11/08 10:30:29;;;;;;;11.95;2.97;;;;;;;13.98;100.00;101328.50;5019281;28;20071;-90
2021/11/08 10:33:17;;;;;;;15.13;2.55;;;;;;;14.16;100.00;101323.56;5018411;28;20414;-87
2021/11/08 10:35:45;;;;;;;12.10;2.95;;;;;;;14.32;100.00;101332.53;5019268;28;20032;-88
2021/11/08 10:38:19;;;;;;;13.02;4.32;;;;;;;14.46;100.00;101326.28;5019000;28;20036;-87
2021/11/08 10:40:52;;;;;;;15.98;4.00;;;;;;;14.60;100.00;101340.84;5035261;28;20039;-88
2021/11/08 10:43:29;;;;;;;14.15;3.75;;;;;;;14.55;100.00;101327.88;5018731;28;20037;-88
2021/11/08 10:46:15;;;;;;;14.75;4.55;;;;;;;14.40;100.00;101329.75;5019013;28;20044;-88
2021/11/08 10:48:53;;;;;;;15.05;4.53;;;;;;;14.16;100.00;101318.16;5018703;28;20467;-87
2021/11/08 10:51:31;;;;;;;6.28;2.60;;;;;;;14.05;100.00;101324.00;5018708;28;20033;-88
2021/11/08 10:54:07;;;;;;;14.02;4.03;;;;;;;14.35;100.00;101324.88;5018669;28;20043;-88
2021/11/08 10:56:37;;;;;;;15.90;3.80;;;;;;;14.78;99.26;101322.34;5035214;28;20064;-89
2021/11/08 10:59:09;;;;;;;10.40;3.25;;;;;;;14.81;98.71;101331.97;5018243;28;20060;-89
2021/11/08 11:01:59;;;;;;;16.40;4.25;;;;;;;14.96;97.79;101316.53;5018680;28;20032;-88
2021/11/08 11:04:32;;;;;;;17.02;3.03;;;;;;;15.00;97.70;101325.09;5035057;28;20032;-87
2021/11/08 11:06:59;;;;;;;15.05;2.63;;;;;;;15.17;98.31;101324.66;5035010;28;20517;-88
2021/11/08 11:09:27;;;;;;;11.80;2.25;;;;;;;16.14;95.27;101319.66;5018212;28;20037;-89
2021/11/08 11:12:04;;;;;;;9.00;2.30;;;;;;;16.49;93.43;101315.91;5033643;28;20029;-89
2021/11/08 11:14:34;;;;;;;10.13;2.17;;;;;;;16.82;92.85;101317.13;5034432;28;20474;-88
2021/11/08 11:17:08;;;;;;;9.65;2.33;;;;;;;17.10;91.23;101325.16;5017781;28;20390;-88
2021/11/08 11:19:34;;;;;;;12.65;2.92;;;;;;;17.48;88.99;101322.72;5018272;28;20410;-89
2021/11/08 11:22:04;;;;;;;14.25;2.45;;;;;;;17.61;87.72;101315.63;5018214;28;20051;-88
2021/11/08 11:24:41;;;;;;;9.60;2.13;;;;;;;17.82;86.73;101312.72;5017675;28;20041;-88
2021/11/08 11:27:11;;;;;;;11.05;2.20;;;;;;;18.04;85.03;101307.88;5050629;28;20033;-89
2021/11/08 11:29:36;;;;;;;10.18;2.15;;;;;;;18.08;83.81;101289.25;5018555;28;20614;-88
2021/11/08 11:32:03;;;;;;;5.25;1.75;;;;;;;18.41;83.85;101305.47;5017668;28;20471;-87
2021/11/08 11:34:30;;;;;;;5.70;1.95;;;;;;;19.08;81.86;101306.91;5018207;28;20150;-88
2021/11/08 11:36:55;;;;;;;14.57;2.30;;;;;;;19.45;80.25;101295.31;5017836;28;20183;-90
2021/11/08 11:39:22;;;;;;;13.80;2.47;;;;;;;19.76;78.24;101313.56;5017550;28;20116;-88
2021/11/08 11:41:49;;;;;;;7.97;2.05;;;;;;;19.92;77.90;101293.88;5067341;28;20037;-90
2021/11/08 11:44:19;;;;;;;8.45;1.85;;;;;;;19.91;76.46;101300.41;5017912;28;20552;-88
2021/11/08 11:46:48;;;;;;;12.20;1.85;;;;;;;19.70;75.24;101268.91;5017798;28;20029;-87
2021/11/08 11:49:14;;;;;;;11.30;2.25;;;;;;;19.86;74.96;101297.50;5017502;28;20044;-89
2021/11/08 11:52:04;;;;;;;8.27;1.80;;;;;;;19.52;74.21;101275.09;5017570;28;20475;-88
2021/11/08 11:54:30;;;;;;;15.18;3.20;;;;;;;19.53;73.59;101273.25;5033423;28;20032;-87
2021/11/08 11:56:57;;;;;;;9.52;1.77;;;;;;;19.60;71.94;101278.63;5017732;28;20185;-88
2021/11/08 11:59:23;;;;;;;9.80;1.85;;;;;;;19.63;72.38;101292.63;5017431;28;20114;-90
2021/11/08 12:01:50;;;;;;;11.70;2.80;;;;;;;19.54;72.14;101283.06;5017400;28;20040;-88
2021/11/08 12:04:15;;;;;;;19.13;4.43;;;;;;;19.58;71.45;101278.81;5017399;28;20464;-88
2021/11/08 12:06:45;;;;;;;13.93;2.47;;;;;;;19.64;70.67;101272.50;5017162;28;20044;-88
2021/11/08 12:09:17;;;;;;;17.25;3.45;;;;;;;19.79;71.15;101283.09;5017269;28;20123;-88
2021/11/08 12:11:46;;;;;;;11.30;2.05;;;;;;;19.90;71.47;101284.25;5017089;28;20086;-88
2021/11/08 12:14:24;;;;;;;10.10;2.10;;;;;;;19.36;71.84;101283.00;5017588;28;20033;-88
2021/11/08 12:16:53;;;;;;;16.95;2.50;;;;;;;19.32;71.40;101272.56;5033399;28;20037;-86
2021/11/08 12:19:20;;;;;;;13.57;3.20;;;;;;;19.55;71.04;101268.38;5033617;28;20072;-89
2021/11/08 12:21:46;;;;;;;16.23;3.25;;;;;;;19.82;71.24;101260.84;5017352;28;20036;-89
2021/11/08 12:24:21;;;;;;;13.88;2.88;;;;;;;20.03;70.32;101262.31;5021045;28;20036;-88
2021/11/08 12:26:47;;;;;;;10.52;2.40;;;;;;;19.98;70.30;101240.31;5024100;28;20471;-89
2021/11/08 12:29:18;;;;;;;14.05;2.65;;;;;;;20.01;69.51;101248.03;5023769;28;20043;-89
2021/11/08 12:31:45;;;;;;;17.80;3.05;;;;;;;20.08;69.36;101239.75;5024212;28;20036;-87
2021/11/08 12:34:21;;;;;;;21.17;2.47;;;;;;;20.04;67.40;101244.84;5040041;28;20025;-88
2021/11/08 12:36:59;;;;;;;18.70;3.25;;;;;;;20.12;69.90;101251.91;5023870;28;20544;-89
2021/11/08 12:39:26;;;;;;;17.60;2.63;;;;;;;20.28;68.31;101250.47;5040365;28;20036;-90
2021/11/08 12:41:56;;;;;;;9.23;1.92;;;;;;;20.33;66.65;101242.44;5023969;28;20466;-91
2021/11/08 12:44:37;;;;;;;20.40;3.05;;;;;;;20.23;66.66;101240.22;5040400;28;20025;-89
2021/11/08 12:47:04;;;;;;;15.38;3.45;;;;;;;20.59;65.53;101233.91;5024021;28;20124;-89
2021/11/08 12:49:33;;;;;;;13.93;2.78;;;;;;;21.07;63.48;101229.44;5039899;28;20027;-88
2021/11/08 12:52:09;;;;;;;7.15;1.75;;;;;;;21.37;62.24;101244.97;5023982;28;20040;-87
2021/11/08 12:54:49;;;;;;;19.00;2.78;;;;;;;20.50;63.56;101248.09;5023856;28;20036;-87
2021/11/08 12:57:21;;;;;;;18.63;2.95;;;;;;;20.07;64.46;101244.38;5040472;28;20033;-89
2021/11/08 12:59:55;;;;;;;12.65;3.10;;;;;;;19.69;65.62;101247.31;5023651;28;20032;-89
2021/11/08 13:02:26;;;;;;;18.08;3.45;;;;;;;20.23;64.28;101248.41;5040712;28;20029;-90
2021/11/08 13:05:02;;;;;;;24.40;4.53;;;;;;;20.99;62.11;101241.56;5023660;28;20585;-89